Yellowstone National Park, WY

5:48 AM MST on November 26, 2014 (GMT -0700)
RAWS GREBE WY US | Change Station
CLOSE
Current Station
Personal Weather Station
Location: Yellowstone National Park, WY
Elevation: 7899 ft
Nearby Weather Stations
Active Advisory: Special Weather Statement Active Notice: Record Report

Elev 7899 ft 44.72 °N, 110.51 °W | Updated 59 minutes ago

Snow
Snow
31 °F
Feels Like 26 °F
N
5
Wind Variable Wind from WSW
Gusts 16.0 mph

Today
High -- | Low -- °F
--% Chance of Precip.
Yesterday
High -- | Low -- °F
Precip. -- in
7:33 AM 4:44 PM
Waxing Crescent, 19% visible
Pressure 30.12 in
Visibility -9999.0 miles
Clouds
Windchill 26 °F
Dew Point 29 °F
Humidity 93%
Rainfall 0.00 in
Snow Depth Not available.
UV Not available.
Pollen .10 out of 12
Air Quality Not available.
Flu Activity Not available.
METAR KP60 261156Z AUTO VRB06KT 00/M02 A3010 RMK AO1 SLP199 P0001 60006 70041 T00001017 10006 21017 52007 $

More Conditions Fewer Conditions

Pressure 30.12 in
Visibility -9999.0 miles
Clouds
Windchill 26 °F
Dew Point 29 °F
Humidity 93%
Rainfall 0.00 in
Snow Depth Not available.
UV Not available.
Pollen .10 out of 12
Air Quality Not available.
Flu Activity Not available.
METAR KP60 261156Z AUTO VRB06KT 00/M02 A3010 RMK AO1 SLP199 P0001 60006 70041 T00001017 10006 21017 52007 $

More Conditions Fewer Conditions

10-Day Weather Forecast

Almanac

Astronomy

Nov. 26, 2014 Rise Set
Actual Time
Civil Twilight
Nautical Twilight
Astronomical Twilight
Moon
Length of Visible Light
Length of Day
Tomorrow will be .
, % of the Moon is Illuminated

Today's Extremes

State Highs State Lows

Community

WunderPhotos

Upload Photos

1,773,715 photos uploaded!

WunderBlogs® & News

Nearby

Air Quality

  Air Quality AQ Index Pollutant
Not available.

Snow Depth

Station Depth Elevation

Earthquake Activity

City Distance Mag. Time & Date
Minimum magnitude displayed is 2.5.

Coastal Water Temperatures

Place Temperature

Nearby Weather Stations